sensor_id;sensor_type;location;lat;lon;timestamp;pressure;altitude;pressure_sealevel;temperature;humidity
39129;BME280;24864;49.940;19.770;2022-08-01T00:01:13;97864.88;;;14.58;100.00
39129;BME280;24864;49.940;19.770;2022-08-01T00:03:43;97856.25;;;14.59;100.00
39129;BME280;24864;49.940;19.770;2022-08-01T00:06:11;97855.41;;;14.52;100.00
39129;BME280;24864;49.940;19.770;2022-08-01T00:08:39;97859.31;;;14.51;100.00
39129;BME280;24864;49.940;19.770;2022-08-01T00:11:07;97856.19;;;14.52;100.00
39129;BME280;24864;49.940;19.770;2022-08-01T00:13:35;97855.41;;;14.52;100.00
39129;BME280;24864;49.940;19.770;2022-08-01T00:16:03;97860.06;;;14.48;100.00
39129;BME280;24864;49.940;19.770;2022-08-01T00:18:31;97854.56;;;14.48;100.00
39129;BME280;24864;49.940;19.770;2022-08-01T00:21:01;97854.19;;;14.45;100.00
39129;BME280;24864;49.940;19.770;2022-08-01T00:23:29;97851.34;;;14.38;100.00
39129;BME280;24864;49.940;19.770;2022-08-01T00:25:57;97852.94;;;14.39;100.00
39129;BME280;24864;49.940;19.770;2022-08-01T00:28:26;97852.03;;;14.28;100.00
39129;BME280;24864;49.940;19.770;2022-08-01T00:30:53;97857.59;;;14.35;100.00
39129;BME280;24864;49.940;19.770;2022-08-01T00:33:21;97855.22;;;14.34;100.00
39129;BME280;24864;49.940;19.770;2022-08-01T00:35:49;97856.00;;;14.34;100.00
39129;BME280;24864;49.940;19.770;2022-08-01T00:38:18;97859.06;;;14.25;100.00
39129;BME280;24864;49.940;19.770;2022-08-01T00:40:46;97860.19;;;14.21;100.00
39129;BME280;24864;49.940;19.770;2022-08-01T00:43:15;97850.34;;;14.16;100.00
39129;BME280;24864;49.940;19.770;2022-08-01T00:45:43;97853.78;;;14.09;100.00
39129;BME280;24864;49.940;19.770;2022-08-01T00:48:11;97856.13;;;14.07;100.00
39129;BME280;24864;49.940;19.770;2022-08-01T00:50:39;97857.28;;;14.06;100.00
39129;BME280;24864;49.940;19.770;2022-08-01T00:53:07;97852.63;;;14.10;100.00
39129;BME280;24864;49.940;19.770;2022-08-01T00:55:46;97849.41;;;14.01;100.00
39129;BME280;24864;49.940;19.770;2022-08-01T00:58:14;97851.72;;;13.99;100.00
39129;BME280;24864;49.940;19.770;2022-08-01T01:00:43;97855.97;;;13.93;100.00
39129;BME280;24864;49.940;19.770;2022-08-01T01:03:22;97856.03;;;14.00;100.00
39129;BME280;24864;49.940;19.770;2022-08-01T01:06:17;97859.59;;;14.04;100.00
39129;BME280;24864;49.940;19.770;2022-08-01T01:09:05;97868.22;;;14.03;100.00
39129;BME280;24864;49.940;19.770;2022-08-01T01:11:45;97858.44;;;14.05;100.00
39129;BME280;24864;49.940;19.770;2022-08-01T01:14:23;97862.78;;;14.06;100.00
39129;BME280;24864;49.940;19.770;2022-08-01T01:16:55;97858.03;;;14.03;100.00
39129;BME280;24864;49.940;19.770;2022-08-01T01:19:30;97860.44;;;14.08;100.00
39129;BME280;24864;49.940;19.770;2022-08-01T01:22:21;97856.44;;;14.02;100.00
39129;BME280;24864;49.940;19.770;2022-08-01T01:25:02;97857.97;;;14.00;100.00
39129;BME280;24864;49.940;19.770;2022-08-01T01:27:42;97859.53;;;13.97;100.00
39129;BME280;24864;49.940;19.770;2022-08-01T01:30:14;97854.81;;;13.94;100.00
39129;BME280;24864;49.940;19.770;2022-08-01T01:32:44;97861.09;;;13.98;100.00
39129;BME280;24864;49.940;19.770;2022-08-01T01:35:20;97860.38;;;14.01;100.00
39129;BME280;24864;49.940;19.770;2022-08-01T01:37:50;97862.66;;;13.95;100.00
39129;BME280;24864;49.940;19.770;2022-08-01T01:40:19;97861.09;;;13.98;100.00
39129;BME280;24864;49.940;19.770;2022-08-01T01:42:50;97861.00;;;13.91;100.00
39129;BME280;24864;49.940;19.770;2022-08-01T01:45:21;97856.34;;;13.91;100.00
39129;BME280;24864;49.940;19.770;2022-08-01T01:47:52;97865.00;;;13.97;100.00
39129;BME280;24864;49.940;19.770;2022-08-01T01:50:23;97868.13;;;13.95;100.00
39129;BME280;24864;49.940;19.770;2022-08-01T01:52:51;97862.59;;;13.92;100.00
39129;BME280;24864;49.940;19.770;2022-08-01T01:55:23;97859.03;;;13.88;100.00
39129;BME280;24864;49.940;19.770;2022-08-01T01:57:53;97860.19;;;13.87;100.00
39129;BME280;24864;49.940;19.770;2022-08-01T02:00:25;97871.16;;;13.87;100.00
39129;BME280;24864;49.940;19.770;2022-08-01T02:02:55;97859.34;;;13.82;100.00
39129;BME280;24864;49.940;19.770;2022-08-01T02:05:25;97840.09;;;13.75;100.00
39129;BME280;24864;49.940;19.770;2022-08-01T02:07:55;97859.34;;;13.82;100.00
39129;BME280;24864;49.940;19.770;2022-08-01T02:10:25;97864.38;;;13.77;100.00
39129;BME280;24864;49.940;19.770;2022-08-01T02:12:56;97859.28;;;13.75;100.00
39129;BME280;24864;49.940;19.770;2022-08-01T02:15:27;97847.38;;;13.64;100.00
39129;BME280;24864;49.940;19.770;2022-08-01T02:17:56;97855.19;;;13.62;100.00
39129;BME280;24864;49.940;19.770;2022-08-01T02:20:26;97855.91;;;13.59;100.00
39129;BME280;24864;49.940;19.770;2022-08-01T02:22:58;97858.22;;;13.53;100.00
39129;BME280;24864;49.940;19.770;2022-08-01T02:25:32;97860.47;;;13.47;100.00
39129;BME280;24864;49.940;19.770;2022-08-01T02:28:04;97852.25;;;13.47;100.00
39129;BME280;24864;49.940;19.770;2022-08-01T02:30:39;97855.00;;;13.47;100.00
39129;BME280;24864;49.940;19.770;2022-08-01T02:33:15;97856.94;;;13.47;100.00
39129;BME280;24864;49.940;19.770;2022-08-01T02:35:48;97859.16;;;13.38;100.00
39129;BME280;24864;49.940;19.770;2022-08-01T02:38:40;97857.19;;;13.38;100.00
39129;BME280;24864;49.940;19.770;2022-08-01T02:41:12;97865.84;;;13.40;100.00
39129;BME280;24864;49.940;19.770;2022-08-01T02:43:46;97854.88;;;13.40;100.00
39129;BME280;24864;49.940;19.770;2022-08-01T02:46:26;97859.63;;;13.43;100.00
39129;BME280;24864;49.940;19.770;2022-08-01T02:48:56;97858.47;;;13.44;100.00
39129;BME280;24864;49.940;19.770;2022-08-01T02:51:27;97868.22;;;13.42;100.00
39129;BME280;24864;49.940;19.770;2022-08-01T02:53:57;97862.72;;;13.42;100.00
39129;BME280;24864;49.940;19.770;2022-08-01T02:56:27;97863.09;;;13.40;100.00
39129;BME280;24864;49.940;19.770;2022-08-01T02:59:04;97863.09;;;13.40;100.00
39129;BME280;24864;49.940;19.770;2022-08-01T03:01:35;97861.81;;;13.34;100.00
39129;BME280;24864;49.940;19.770;2022-08-01T03:04:07;97862.97;;;13.33;100.00
39129;BME280;24864;49.940;19.770;2022-08-01T03:06:37;97861.81;;;13.34;100.00
39129;BME280;24864;49.940;19.770;2022-08-01T03:09:06;97860.22;;;13.33;100.00
39129;BME280;24864;49.940;19.770;2022-08-01T03:11:39;97860.22;;;13.33;100.00
39129;BME280;24864;49.940;19.770;2022-08-01T03:14:11;97863.34;;;13.31;100.00
39129;BME280;24864;49.940;19.770;2022-08-01T03:16:43;97871.94;;;13.30;100.00
39129;BME280;24864;49.940;19.770;2022-08-01T03:19:13;97863.28;;;13.28;100.00
39129;BME280;24864;49.940;19.770;2022-08-01T03:21:43;97853.81;;;13.22;100.00
39129;BME280;24864;49.940;19.770;2022-08-01T03:24:12;97860.44;;;13.21;100.00
39129;BME280;24864;49.940;19.770;2022-08-01T03:26:43;97862.41;;;13.20;100.00
39129;BME280;24864;49.940;19.770;2022-08-01T03:29:15;97867.06;;;13.20;100.00
39129;BME280;24864;49.940;19.770;2022-08-01T03:31:47;97867.81;;;13.16;100.00
39129;BME280;24864;49.940;19.770;2022-08-01T03:34:17;97868.16;;;13.11;100.00
39129;BME280;24864;49.940;19.770;2022-08-01T03:36:49;97864.59;;;13.11;100.00
39129;BME280;24864;49.940;19.770;2022-08-01T03:39:20;97864.97;;;13.09;100.00
39129;BME280;24864;49.940;19.770;2022-08-01T03:41:54;97865.41;;;13.11;100.00
39129;BME280;24864;49.940;19.770;2022-08-01T03:44:26;97868.16;;;13.11;100.00
39129;BME280;24864;49.940;19.770;2022-08-01T03:46:59;97873.19;;;13.09;100.00
39129;BME280;24864;49.940;19.770;2022-08-01T03:49:31;97881.03;;;13.11;100.00
39129;BME280;24864;49.940;19.770;2022-08-01T03:52:02;97878.59;;;13.06;100.00
39129;BME280;24864;49.940;19.770;2022-08-01T03:54:34;97886.31;;;13.00;100.00
39129;BME280;24864;49.940;19.770;2022-08-01T03:57:04;97891.09;;;13.03;100.00
39129;BME280;24864;49.940;19.770;2022-08-01T03:59:34;97891.09;;;13.03;100.00
39129;BME280;24864;49.940;19.770;2022-08-01T04:02:04;97890.59;;;12.97;100.00
39129;BME280;24864;49.940;19.770;2022-08-01T04:04:34;97886.31;;;13.00;100.00
39129;BME280;24864;49.940;19.770;2022-08-01T04:07:02;97893.25;;;12.94;100.00
39129;BME280;24864;49.940;19.770;2022-08-01T04:09:33;97899.44;;;12.87;100.00
39129;BME280;24864;49.940;19.770;2022-08-01T04:12:01;97897.91;;;12.90;100.00
39129;BME280;24864;49.940;19.770;2022-08-01T04:14:38;97901.06;;;12.92;100.00
39129;BME280;24864;49.940;19.770;2022-08-01T04:17:07;97897.59;;;12.95;100.00
39129;BME280;24864;49.940;19.770;2022-08-01T04:19:35;97906.16;;;12.93;100.00
39129;BME280;24864;49.940;19.770;2022-08-01T04:22:04;97906.41;;;12.84;100.00
39129;BME280;24864;49.940;19.770;2022-08-01T04:24:34;97903.69;;;12.84;100.00
39129;BME280;24864;49.940;19.770;2022-08-01T04:27:07;97904.09;;;12.86;100.00
39129;BME280;24864;49.940;19.770;2022-08-01T04:29:37;97896.25;;;12.85;100.00
39129;BME280;24864;49.940;19.770;2022-08-01T04:32:08;97903.97;;;12.79;100.00
39129;BME280;24864;49.940;19.770;2022-08-01T04:34:41;97907.00;;;12.74;100.00
39129;BME280;24864;49.940;19.770;2022-08-01T04:37:12;97895.94;;;12.67;100.00
39129;BME280;24864;49.940;19.770;2022-08-01T04:39:44;97902.28;;;12.71;100.00
39129;BME280;24864;49.940;19.770;2022-08-01T04:42:17;97903.75;;;12.65;100.00
39129;BME280;24864;49.940;19.770;2022-08-01T04:44:59;97897.81;;;12.63;100.00
39129;BME280;24864;49.940;19.770;2022-08-01T04:47:29;97898.81;;;12.74;100.00
39129;BME280;24864;49.940;19.770;2022-08-01T04:49:58;97905.56;;;12.80;100.00
39129;BME280;24864;49.940;19.770;2022-08-01T04:52:33;97901.06;;;12.92;100.00
39129;BME280;24864;49.940;19.770;2022-08-01T04:55:01;97898.69;;;12.90;100.00
39129;BME280;24864;49.940;19.770;2022-08-01T04:57:29;97899.94;;;12.96;100.00
39129;BME280;24864;49.940;19.770;2022-08-01T04:59:58;97892.94;;;12.99;100.00
39129;BME280;24864;49.940;19.770;2022-08-01T05:02:27;97898.44;;;12.99;100.00
39129;BME280;24864;49.940;19.770;2022-08-01T05:04:56;97895.16;;;13.13;100.00
39129;BME280;24864;49.940;19.770;2022-08-01T05:07:23;97899.63;;;13.25;100.00
39129;BME280;24864;49.940;19.770;2022-08-01T05:09:51;97898.28;;;13.38;100.00
39129;BME280;24864;49.940;19.770;2022-08-01T05:12:19;97895.31;;;13.24;100.00
39129;BME280;24864;49.940;19.770;2022-08-01T05:14:47;97902.59;;;13.39;100.00
39129;BME280;24864;49.940;19.770;2022-08-01T05:17:15;97898.81;;;13.47;100.00
39129;BME280;24864;49.940;19.770;2022-08-01T05:19:45;97893.41;;;13.51;100.00
39129;BME280;24864;49.940;19.770;2022-08-01T05:22:13;97904.59;;;13.69;100.00
39129;BME280;24864;49.940;19.770;2022-08-01T05:24:41;97901.63;;;13.81;100.00
39129;BME280;24864;49.940;19.770;2022-08-01T05:27:11;97895.69;;;13.76;100.00
39129;BME280;24864;49.940;19.770;2022-08-01T05:29:42;97911.16;;;13.91;100.00
39129;BME280;24864;49.940;19.770;2022-08-01T05:32:10;97904.06;;;13.87;100.00
39129;BME280;24864;49.940;19.770;2022-08-01T05:34:38;97910.44;;;13.98;100.00
39129;BME280;24864;49.940;19.770;2022-08-01T05:37:08;97898.13;;;14.15;100.00
39129;BME280;24864;49.940;19.770;2022-08-01T05:39:36;97901.38;;;14.28;100.00
39129;BME280;24864;49.940;19.770;2022-08-01T05:42:04;97902.31;;;14.39;100.00
39129;BME280;24864;49.940;19.770;2022-08-01T05:44:33;97903.91;;;14.40;100.00
39129;BME280;24864;49.940;19.770;2022-08-01T05:47:01;97904.03;;;14.55;100.00
39129;BME280;24864;49.940;19.770;2022-08-01T05:49:29;97901.47;;;14.69;100.00
39129;BME280;24864;49.940;19.770;2022-08-01T05:51:57;97902.00;;;14.86;100.00
39129;BME280;24864;49.940;19.770;2022-08-01T05:54:28;97901.38;;;15.03;100.00
39129;BME280;24864;49.940;19.770;2022-08-01T05:56:57;97902.25;;;15.15;100.00
39129;BME280;24864;49.940;19.770;2022-08-01T05:59:28;97904.28;;;15.25;100.00
39129;BME280;24864;49.940;19.770;2022-08-01T06:01:56;97904.78;;;15.38;100.00
39129;BME280;24864;49.940;19.770;2022-08-01T06:04:24;97897.72;;;15.40;100.00
39129;BME280;24864;49.940;19.770;2022-08-01T06:06:52;97917.84;;;15.59;100.00
39129;BME280;24864;49.940;19.770;2022-08-01T06:09:20;97912.44;;;15.73;100.00
39129;BME280;24864;49.940;19.770;2022-08-01T06:11:49;97927.88;;;15.85;100.00
39129;BME280;24864;49.940;19.770;2022-08-01T06:14:17;97919.28;;;15.94;100.00
39129;BME280;24864;49.940;19.770;2022-08-01T06:16:45;97924.44;;;16.06;100.00
39129;BME280;24864;49.940;19.770;2022-08-01T06:19:13;97913.06;;;16.12;100.00
39129;BME280;24864;49.940;19.770;2022-08-01T06:21:41;97923.28;;;16.15;100.00
39129;BME280;24864;49.940;19.770;2022-08-01T06:24:09;97926.47;;;16.24;100.00
39129;BME280;24864;49.940;19.770;2022-08-01T06:26:37;97938.28;;;16.35;100.00
39129;BME280;24864;49.940;19.770;2022-08-01T06:29:06;97927.34;;;16.50;100.00
39129;BME280;24864;49.940;19.770;2022-08-01T06:31:35;97943.06;;;16.60;100.00
39129;BME280;24864;49.940;19.770;2022-08-01T06:34:03;97937.97;;;16.59;100.00
39129;BME280;24864;49.940;19.770;2022-08-01T06:36:31;97943.13;;;16.75;100.00
39129;BME280;24864;49.940;19.770;2022-08-01T06:38:59;97932.09;;;16.75;100.00
39129;BME280;24864;49.940;19.770;2022-08-01T06:41:27;97938.44;;;16.93;100.00
39129;BME280;24864;49.940;19.770;2022-08-01T06:43:55;97932.94;;;17.00;100.00
39129;BME280;24864;49.940;19.770;2022-08-01T06:46:24;97942.41;;;17.14;100.00
39129;BME280;24864;49.940;19.770;2022-08-01T06:48:58;97936.91;;;17.28;100.00
39129;BME280;24864;49.940;19.770;2022-08-01T06:51:26;97943.59;;;17.42;100.00
39129;BME280;24864;49.940;19.770;2022-08-01T06:53:54;97937.69;;;17.47;100.00
39129;BME280;24864;49.940;19.770;2022-08-01T06:56:22;97940.84;;;17.49;100.00
39129;BME280;24864;49.940;19.770;2022-08-01T06:58:50;97940.03;;;17.52;100.00
39129;BME280;24864;49.940;19.770;2022-08-01T07:01:18;97938.84;;;17.67;100.00
39129;BME280;24864;49.940;19.770;2022-08-01T07:03:47;97940.78;;;17.78;100.00
39129;BME280;24864;49.940;19.770;2022-08-01T07:06:21;97948.63;;;17.87;100.00
39129;BME280;24864;49.940;19.770;2022-08-01T07:08:49;97946.69;;;17.94;100.00
39129;BME280;24864;49.940;19.770;2022-08-01T07:11:18;97939.94;;;18.03;100.00
39129;BME280;24864;49.940;19.770;2022-08-01T07:13:46;97941.50;;;18.11;100.00
39129;BME280;24864;49.940;19.770;2022-08-01T07:16:15;97940.63;;;18.28;100.00
39129;BME280;24864;49.940;19.770;2022-08-01T07:18:43;97942.97;;;18.34;100.00
39129;BME280;24864;49.940;19.770;2022-08-01T07:21:12;97942.19;;;18.37;100.00
39129;BME280;24864;49.940;19.770;2022-08-01T07:24:00;97946.09;;;18.43;100.00
39129;BME280;24864;49.940;19.770;2022-08-01T07:26:39;97949.16;;;18.63;100.00
39129;BME280;24864;49.940;19.770;2022-08-01T07:29:22;97957.38;;;18.74;100.00
39129;BME280;24864;49.940;19.770;2022-08-01T07:31:50;97948.63;;;18.86;100.00
39129;BME280;24864;49.940;19.770;2022-08-01T07:34:18;97953.69;;;18.99;100.00
39129;BME280;24864;49.940;19.770;2022-08-01T07:36:49;97941.19;;;18.76;100.00
39129;BME280;24864;49.940;19.770;2022-08-01T07:39:17;97952.94;;;18.94;100.00
39129;BME280;24864;49.940;19.770;2022-08-01T07:41:44;97948.94;;;19.03;100.00
39129;BME280;24864;49.940;19.770;2022-08-01T07:44:33;97948.03;;;19.17;100.00
39129;BME280;24864;49.940;19.770;2022-08-01T07:47:00;97953.53;;;19.20;100.00
39129;BME280;24864;49.940;19.770;2022-08-01T07:49:28;97941.56;;;19.34;100.00
39129;BME280;24864;49.940;19.770;2022-08-01T07:52:03;97952.44;;;19.59;100.00
39129;BME280;24864;49.940;19.770;2022-08-01T07:54:32;97946.00;;;19.70;100.00
39129;BME280;24864;49.940;19.770;2022-08-01T07:57:00;97950.66;;;19.80;100.00
39129;BME280;24864;49.940;19.770;2022-08-01T07:59:29;97947.88;;;19.80;100.00
39129;BME280;24864;49.940;19.770;2022-08-01T08:01:57;97948.47;;;20.02;100.00
39129;BME280;24864;49.940;19.770;2022-08-01T08:04:25;97948.34;;;20.13;100.00
39129;BME280;24864;49.940;19.770;2022-08-01T08:06:53;97936.06;;;20.14;100.00
39129;BME280;24864;49.940;19.770;2022-08-01T08:09:22;97943.16;;;20.15;100.00
39129;BME280;24864;49.940;19.770;2022-08-01T08:11:50;97932.09;;;20.15;100.00
39129;BME280;24864;49.940;19.770;2022-08-01T08:14:19;97934.94;;;20.43;100.00
39129;BME280;24864;49.940;19.770;2022-08-01T08:16:58;97933.09;;;20.60;100.00
39129;BME280;24864;49.940;19.770;2022-08-01T08:19:28;97931.97;;;20.88;100.00
39129;BME280;24864;49.940;19.770;2022-08-01T08:22:04;97939.75;;;20.97;100.00
39129;BME280;24864;49.940;19.770;2022-08-01T08:24:35;97932.38;;;20.86;100.00
39129;BME280;24864;49.940;19.770;2022-08-01T08:27:12;97934.81;;;21.08;100.00
39129;BME280;24864;49.940;19.770;2022-08-01T08:29:41;97943.63;;;21.27;100.00
39129;BME280;24864;49.940;19.770;2022-08-01T08:32:10;97945.63;;;21.26;100.00
39129;BME280;24864;49.940;19.770;2022-08-01T08:34:38;97949.22;;;21.47;100.00
39129;BME280;24864;49.940;19.770;2022-08-01T08:37:06;97938.81;;;21.55;100.00
39129;BME280;24864;49.940;19.770;2022-08-01T08:39:36;97950.75;;;21.51;100.00
39129;BME280;24864;49.940;19.770;2022-08-01T08:42:08;97944.00;;;21.76;100.00
39129;BME280;24864;49.940;19.770;2022-08-01T08:44:37;97947.72;;;21.90;100.00
39129;BME280;24864;49.940;19.770;2022-08-01T08:47:11;97946.50;;;22.11;100.00
39129;BME280;24864;49.940;19.770;2022-08-01T08:49:46;97946.75;;;22.20;99.87
39129;BME280;24864;49.940;19.770;2022-08-01T08:52:17;97951.72;;;22.29;99.76
39129;BME280;24864;49.940;19.770;2022-08-01T08:54:49;97945.31;;;22.32;96.21
39129;BME280;24864;49.940;19.770;2022-08-01T08:57:19;97945.03;;;22.46;97.30
39129;BME280;24864;49.940;19.770;2022-08-01T08:59:48;97944.72;;;22.61;100.00
39129;BME280;24864;49.940;19.770;2022-08-01T09:02:18;97942.16;;;22.70;100.00
39129;BME280;24864;49.940;19.770;2022-08-01T09:04:48;97943.91;;;22.44;99.36
39129;BME280;24864;49.940;19.770;2022-08-01T09:07:16;97945.31;;;22.32;97.48
39129;BME280;24864;49.940;19.770;2022-08-01T09:09:44;97946.16;;;22.29;87.57
39129;BME280;24864;49.940;19.770;2022-08-01T09:12:17;97950.75;;;22.39;84.33
39129;BME280;24864;49.940;19.770;2022-08-01T09:14:47;97951.16;;;22.58;87.50
39129;BME280;24864;49.940;19.770;2022-08-01T09:17:16;97953.97;;;22.34;88.84
39129;BME280;24864;49.940;19.770;2022-08-01T09:19:45;97951.72;;;22.29;86.07
39129;BME280;24864;49.940;19.770;2022-08-01T09:22:16;97947.50;;;22.61;87.60
39129;BME280;24864;49.940;19.770;2022-08-01T09:24:57;97951.38;;;22.47;80.24
39129;BME280;24864;49.940;19.770;2022-08-01T09:27:28;97953.19;;;22.74;79.38
39129;BME280;24864;49.940;19.770;2022-08-01T09:30:09;97945.56;;;22.94;80.07
39129;BME280;24864;49.940;19.770;2022-08-01T09:32:52;97949.81;;;23.19;80.88
39129;BME280;24864;49.940;19.770;2022-08-01T09:35:25;97947.41;;;23.51;79.29
39129;BME280;24864;49.940;19.770;2022-08-01T09:38:15;97952.53;;;23.69;78.62
39129;BME280;24864;49.940;19.770;2022-08-01T09:40:47;97943.88;;;23.96;80.52
39129;BME280;24864;49.940;19.770;2022-08-01T09:43:18;97949.06;;;24.11;78.48
39129;BME280;24864;49.940;19.770;2022-08-01T09:45:46;97940.09;;;23.73;83.23
39129;BME280;24864;49.940;19.770;2022-08-01T09:48:19;97952.41;;;23.89;76.80
39129;BME280;24864;49.940;19.770;2022-08-01T09:50:53;97949.63;;;23.89;77.25
39129;BME280;24864;49.940;19.770;2022-08-01T09:53:45;97948.03;;;23.88;75.43
39129;BME280;24864;49.940;19.770;2022-08-01T09:56:20;97951.69;;;24.01;77.02
39129;BME280;24864;49.940;19.770;2022-08-01T09:58:52;97948.16;;;24.14;76.00
39129;BME280;24864;49.940;19.770;2022-08-01T10:01:26;97953.22;;;23.73;75.93
39129;BME280;24864;49.940;19.770;2022-08-01T10:04:06;97951.13;;;23.94;75.33
39129;BME280;24864;49.940;19.770;2022-08-01T10:06:36;97946.81;;;24.48;74.28
39129;BME280;24864;49.940;19.770;2022-08-01T10:09:04;97954.75;;;24.62;71.28
39129;BME280;24864;49.940;19.770;2022-08-01T10:11:33;97949.22;;;24.88;71.10
39129;BME280;24864;49.940;19.770;2022-08-01T10:14:07;97945.22;;;24.89;68.06
39129;BME280;24864;49.940;19.770;2022-08-01T10:16:36;97942.72;;;24.65;64.88
39129;BME280;24864;49.940;19.770;2022-08-01T10:19:06;97941.94;;;24.52;67.59
39129;BME280;24864;49.940;19.770;2022-08-01T10:21:41;97946.03;;;24.60;71.02
39129;BME280;24864;49.940;19.770;2022-08-01T10:24:26;97944.00;;;24.35;69.15
39129;BME280;24864;49.940;19.770;2022-08-01T10:26:59;97948.94;;;24.44;65.88
39129;BME280;24864;49.940;19.770;2022-08-01T10:29:42;97948.66;;;24.25;66.71
39129;BME280;24864;49.940;19.770;2022-08-01T10:32:33;97947.63;;;24.61;70.35
39129;BME280;24864;49.940;19.770;2022-08-01T10:35:04;97950.00;;;25.01;71.60
39129;BME280;24864;49.940;19.770;2022-08-01T10:37:40;97942.72;;;25.17;73.46
39129;BME280;24864;49.940;19.770;2022-08-01T10:40:19;97941.06;;;25.07;65.88
39129;BME280;24864;49.940;19.770;2022-08-01T10:42:57;97934.28;;;24.82;65.46
39129;BME280;24864;49.940;19.770;2022-08-01T10:45:27;97940.63;;;25.08;67.93
39129;BME280;24864;49.940;19.770;2022-08-01T10:47:59;97948.75;;;25.15;68.18
39129;BME280;24864;49.940;19.770;2022-08-01T10:50:34;97942.81;;;25.52;68.32
39129;BME280;24864;49.940;19.770;2022-08-01T10:53:14;97944.09;;;25.73;63.00
39129;BME280;24864;49.940;19.770;2022-08-01T10:55:52;97949.31;;;25.84;64.40
39129;BME280;24864;49.940;19.770;2022-08-01T10:58:29;97942.28;;;26.02;60.96
39129;BME280;24864;49.940;19.770;2022-08-01T11:01:21;97943.16;;;26.11;65.72
39129;BME280;24864;49.940;19.770;2022-08-01T11:04:07;97938.97;;;26.07;63.30
39129;BME280;24864;49.940;19.770;2022-08-01T11:06:54;97940.50;;;25.12;67.52
39129;BME280;24864;49.940;19.770;2022-08-01T11:09:38;97941.19;;;25.16;62.30
39129;BME280;24864;49.940;19.770;2022-08-01T11:12:08;97939.28;;;25.26;63.03
39129;BME280;24864;49.940;19.770;2022-08-01T11:15:21;97935.41;;;24.97;65.63
39129;BME280;24864;49.940;19.770;2022-08-01T11:18:00;97937.41;;;24.97;68.64
39129;BME280;24864;49.940;19.770;2022-08-01T11:20:31;97942.50;;;24.73;64.62
39129;BME280;24864;49.940;19.770;2022-08-01T11:23:23;97946.66;;;25.07;73.78
39129;BME280;24864;49.940;19.770;2022-08-01T11:26:14;97940.63;;;25.21;62.87
39129;BME280;24864;49.940;19.770;2022-08-01T11:28:45;97950.31;;;25.29;61.00
39129;BME280;24864;49.940;19.770;2022-08-01T11:31:33;97918.19;;;25.12;61.85
39129;BME280;24864;49.940;19.770;2022-08-01T11:34:05;97945.66;;;25.39;59.17
39129;BME280;24864;49.940;19.770;2022-08-01T11:36:33;97934.19;;;25.59;57.99
39129;BME280;24864;49.940;19.770;2022-08-01T11:39:21;97937.72;;;25.73;61.25
39129;BME280;24864;49.940;19.770;2022-08-01T11:41:50;97941.59;;;26.10;65.04
39129;BME280;24864;49.940;19.770;2022-08-01T11:44:21;97932.19;;;26.17;60.77
39129;BME280;24864;49.940;19.770;2022-08-01T11:46:58;97938.44;;;26.21;65.00
39129;BME280;24864;49.940;19.770;2022-08-01T11:49:31;97941.53;;;26.01;66.18
39129;BME280;24864;49.940;19.770;2022-08-01T11:52:04;97931.69;;;25.26;68.42
39129;BME280;24864;49.940;19.770;2022-08-01T11:54:34;97939.94;;;25.17;71.76
39129;BME280;24864;49.940;19.770;2022-08-01T11:57:05;97936.59;;;25.22;69.41
39129;BME280;24864;49.940;19.770;2022-08-01T11:59:38;97931.69;;;25.26;72.33
39129;BME280;24864;49.940;19.770;2022-08-01T12:02:22;97938.69;;;25.44;70.49
39129;BME280;24864;49.940;19.770;2022-08-01T12:05:00;97939.63;;;25.41;75.04
39129;BME280;24864;49.940;19.770;2022-08-01T12:07:32;97928.78;;;24.91;78.05
39129;BME280;24864;49.940;19.770;2022-08-01T12:10:03;97941.63;;;24.76;79.57
39129;BME280;24864;49.940;19.770;2022-08-01T12:12:34;97934.06;;;24.89;74.63
39129;BME280;24864;49.940;19.770;2022-08-01T12:15:06;97938.28;;;24.81;75.32
39129;BME280;24864;49.940;19.770;2022-08-01T12:17:37;97937.78;;;24.44;81.60
39129;BME280;24864;49.940;19.770;2022-08-01T12:20:12;97943.50;;;24.11;82.43
39129;BME280;24864;49.940;19.770;2022-08-01T12:22:42;97944.22;;;23.98;82.63
39129;BME280;24864;49.940;19.770;2022-08-01T12:25:12;97936.81;;;23.91;83.29
39129;BME280;24864;49.940;19.770;2022-08-01T12:27:41;97944.78;;;23.93;85.29
39129;BME280;24864;49.940;19.770;2022-08-01T12:30:11;97942.47;;;24.04;83.25
39129;BME280;24864;49.940;19.770;2022-08-01T12:32:41;97942.88;;;23.73;77.24
39129;BME280;24864;49.940;19.770;2022-08-01T12:35:12;97916.09;;;23.63;78.27
39129;BME280;24864;49.940;19.770;2022-08-01T12:37:46;97940.22;;;23.99;72.36
39129;BME280;24864;49.940;19.770;2022-08-01T12:40:16;97942.41;;;24.21;72.70
39129;BME280;24864;49.940;19.770;2022-08-01T12:42:45;97942.66;;;23.97;73.10
39129;BME280;24864;49.940;19.770;2022-08-01T12:45:16;97933.63;;;23.93;75.19
39129;BME280;24864;49.940;19.770;2022-08-01T12:47:45;97944.22;;;23.98;74.34
39129;BME280;24864;49.940;19.770;2022-08-01T12:50:17;97934.47;;;24.06;76.58
39129;BME280;24864;49.940;19.770;2022-08-01T12:52:46;97933.91;;;24.12;78.29
39129;BME280;24864;49.940;19.770;2022-08-01T12:55:15;97936.91;;;24.04;76.05
39129;BME280;24864;49.940;19.770;2022-08-01T12:57:45;97930.97;;;24.02;77.30
39129;BME280;24864;49.940;19.770;2022-08-01T13:00:20;97933.22;;;24.08;81.50
39129;BME280;24864;49.940;19.770;2022-08-01T13:02:48;97932.78;;;23.63;81.40
39129;BME280;24864;49.940;19.770;2022-08-01T13:05:18;97925.63;;;23.79;81.25
39129;BME280;24864;49.940;19.770;2022-08-01T13:07:48;97929.38;;;23.72;81.70